Flight Track Log - Related Links

Times and Time Zones

All times are in EDT time to prevent confusion due to time zone crossing. See the SWA224 flight status page for this flight to view local times or setup timezone preferences in your user account.


Time Position Orientation Groundspeed Altitude Reporting Facility
EDT Latitude Longitude Course Direction KTS MPH feet Rate Location/Type
Sat 11:19:56 AM 37.7292 -122.2558 107° East 170 196 1,900  Level Oakland Center
Sat 11:20:57 AM 37.7592 -122.3133 303° West 206 237 4,900 3,571 Climbing Oakland Center
Sat 11:22:02 AM 37.7667 -122.4167 275° West 294 338 9,400 4,224 Climbing Northern Cal TRACON
Sat 11:23:02 AM 37.7000 -122.4833 218° Southwest 310 357 13,700 3,750 Climbing Northern Cal TRACON
Sat 11:24:02 AM 37.6167 -122.4167 148° Southeast 361 415 16,900 2,622 Climbing Northern Cal TRACON
Sat 11:25:00 AM 37.2259 -122.1870 107° East  Level FlightAware Approximate
Sat 11:25:01 AM 37.5667 -122.3358 128° Southeast 365 420 18,900  Level Oakland Center
Sat 11:26:02 AM 37.4956 -122.2356 132° Southeast 379 436 19,600 2,213 Climbing Oakland Center
Sat 11:27:03 AM 37.4097 -122.1106 131° Southeast 392 451 23,400 3,344 Climbing Oakland Center
Sat 11:28:04 AM 37.3342 -122.0008 131° Southeast 411 473 26,400 2,951 Climbing Oakland Center
Sat 11:29:05 AM 37.2567 -121.8858 130° Southeast 427 491 29,400 2,951 Climbing Oakland Center
Sat 11:30:06 AM 37.1781 -121.7742 131° Southeast 427 491 32,400 2,213 Climbing Oakland Center
Sat 11:31:07 AM 37.0986 -121.6600 131° Southeast 439 505 33,900 1,770 Climbing Oakland Center
Sat 11:32:08 AM 37.0167 -121.5419 131° Southeast 449 517 36,000 2,016 Climbing Oakland Center
Sat 11:33:09 AM 36.9356 -121.4258 131° Southeast 445 512 38,000 1,820 Climbing Oakland Center
Sat 11:34:10 AM 36.8550 -121.3086 131° Southeast 446 513 39,700 1,475 Climbing Oakland Center
Sat 11:35:11 AM 36.7672 -121.1872 132° Southeast 437 503 41,000 639 Climbing Oakland Center
Sat 11:36:12 AM 36.6847 -121.0719 132° Southeast 444 511 41,000  Level Oakland Center
Sat 11:37:13 AM 36.6036 -120.9564 131° Southeast 443 510 41,000  Level Oakland Center
Sat 11:38:14 AM 36.5233 -120.8408 131° Southeast 442 509 41,000  Level Oakland Center
Sat 11:39:15 AM 36.4422 -120.7264 131° Southeast 441 507 41,000  Level Oakland Center
Sat 11:40:16 AM 36.3606 -120.6139 132° Southeast 439 505 41,000  Level Oakland Center
Sat 11:41:17 AM 36.2794 -120.5000 131° Southeast 440 506 41,000  Level Oakland Center
Sat 11:42:19 AM 36.1953 -120.3853 132° Southeast 448 516 41,000  Level Oakland Center
Sat 11:43:20 AM 36.1125 -120.2703 132° Southeast 445 512 41,000  Level Oakland Center
Sat 11:44:21 AM 36.0133 -120.1353 132° Southeast 441 507 41,000  Level Oakland Center
Sat 11:45:22 AM 35.9311 -120.0256 133° Southeast 436 502 41,000  Level Oakland Center
Sat 11:46:23 AM 35.8469 -119.9108 132° Southeast 446 513 41,000  Level Oakland Center
Sat 11:47:24 AM 35.7628 -119.7936 131° Southeast 452 520 41,000  Level Oakland Center
Sat 11:48:25 AM 35.6997 -119.6589 120° Southeast 456 525 41,000  Level Oakland Center
Sat 11:49:27 AM 35.6425 -119.5192 117° Southeast 455 524 41,000  Level Oakland Center
Sat 11:50:28 AM 35.5861 -119.3792 116° Southeast 457 526 41,000  Level Oakland Center
Sat 11:50:51 AM 35.5658 -119.3256 115° Southeast 452 520 41,000  Level Los Angeles Center
Sat 11:51:52 AM 35.5100 -119.1875 116° Southeast 451 519 41,000  Level Los Angeles Center
Sat 11:52:54 AM 35.4542 -119.0478 116° Southeast 454 522 41,000  Level Los Angeles Center
Sat 11:53:56 AM 35.3972 -118.9092 117° Southeast 455 524 41,000  Level Los Angeles Center
Sat 11:54:57 AM 35.3408 -118.7700 116° Southeast 455 524 41,000  Level Los Angeles Center
Sat 11:55:59 AM 35.2750 -118.6056 116° Southeast 451 519 41,000  Level Los Angeles Center
Sat 11:57:01 AM 35.2164 -118.4700 118° Southeast 453 521 41,000  Level Los Angeles Center
Sat 11:58:03 AM 35.1581 -118.3319 117° Southeast 457 526 41,000  Level Los Angeles Center
Sat 11:59:04 AM 35.1003 -118.1936 117° Southeast 455 524 41,000  Level Los Angeles Center
Sat 12:00:06 PM 35.0433 -118.0581 117° Southeast 457 526 41,000  Level Los Angeles Center
Sat 12:01:08 PM 34.9856 -117.9206 117° Southeast 459 528 41,000  Level Los Angeles Center
Sat 12:02:10 PM 34.9156 -117.7550 117° Southeast 464 534 41,000  Level Los Angeles Center
Sat 12:03:12 PM 34.8589 -117.6178 117° Southeast 462 532 41,000  Level Los Angeles Center
Sat 12:04:13 PM 34.7989 -117.4789 118° Southeast 467 537 41,000  Level Los Angeles Center
Sat 12:05:15 PM 34.7394 -117.3397 117° Southeast 470 541 41,000  Level Los Angeles Center
Sat 12:06:17 PM 34.6800 -117.2017 118° Southeast 466 536 41,000  Level Los Angeles Center
Sat 12:07:19 PM 34.6083 -117.0356 118° Southeast 465 535 41,000  Level Los Angeles Center
Sat 12:08:21 PM 34.5489 -116.8975 118° Southeast 464 534 41,000  Level Los Angeles Center
Sat 12:09:23 PM 34.4883 -116.7583 118° Southeast 469 540 41,000  Level Los Angeles Center
Sat 12:10:24 PM 34.4283 -116.6197 118° Southeast 468 539 41,000  Level Los Angeles Center
Sat 12:11:26 PM 34.3692 -116.4783 117° Southeast 472 543 41,000  Level Los Angeles Center
Sat 12:12:28 PM 34.3083 -116.3394 118° Southeast 471 542 41,000  Level Los Angeles Center
Sat 12:13:30 PM 34.2467 -116.2006 118° Southeast 471 542 41,000  Level Los Angeles Center
Sat 12:14:32 PM 34.1728 -116.0331 118° Southeast 472 543 41,000  Level Los Angeles Center
Sat 12:15:34 PM 34.1072 -115.8883 119° Southeast 473 544 41,000  Level Los Angeles Center
Sat 12:16:36 PM 34.0453 -115.7492 118° Southeast 472 543 41,000  Level Los Angeles Center
Sat 12:17:38 PM 33.9814 -115.6086 119° Southeast 476 548 41,000  Level Los Angeles Center
Sat 12:18:40 PM 33.9181 -115.4689 119° Southeast 475 547 41,000  Level Los Angeles Center
Sat 12:19:42 PM 33.8547 -115.3292 119° Southeast 475 547 41,000  Level Los Angeles Center
Sat 12:20:44 PM 33.7928 -115.1900 118° Southeast 473 544 41,000 -48 Level Los Angeles Center
Sat 12:21:46 PM 33.7147 -115.0233 119° Southeast 474 545 40,900 -1,065 Descending Los Angeles Center
Sat 12:22:48 PM 33.6514 -114.8844 119° Southeast 473 544 38,800 -2,226 Descending Los Angeles Center
Sat 12:23:50 PM 33.5919 -114.7469 117° Southeast 465 535 36,300 -2,690 Descending Los Angeles Center
Sat 12:24:44 PM 33.5664 -114.6022 102° East 465 535 33,600 -2,638 Descending Albuquerque Center
Sat 12:25:46 PM 33.5378 -114.4564 103° East 454 522 31,200 -2,274 Descending Albuquerque Center
Sat 12:26:48 PM 33.5117 -114.3178 103° East 434 499 28,900 -2,226 Descending Albuquerque Center
Sat 12:27:50 PM 33.4847 -114.1872 104° East 412 474 26,600 -1,902 Descending Albuquerque Center
Sat 12:28:51 PM 33.4589 -114.0617 104° East 395 455 25,000 -780 Descending Albuquerque Center
Sat 12:29:53 PM 33.4353 -113.9403 103° East 380 437 25,000  Level Albuquerque Center
Sat 12:30:55 PM 33.4111 -113.8197 103° East 374 430 25,000  Level Albuquerque Center
Sat 12:31:57 PM 33.3808 -113.6739 104° East 375 432 25,000 -732 Level Albuquerque Center
Sat 12:32:58 PM 33.3569 -113.5522 103° East 376 433 23,500 -1,463 Descending Albuquerque Center
Sat 12:34:00 PM 33.3336 -113.4364 104° East 364 419 22,000 -1,500 Descending Albuquerque Center
Sat 12:35:02 PM 33.3089 -113.3219 104° East 357 411 20,400 -1,707 Descending Albuquerque Center
Sat 12:36:03 PM 33.2858 -113.2103 104° East 350 403 18,500 -1,854 Descending Albuquerque Center
Sat 12:37:05 PM 33.2733 -113.1008 98° East 337 388 16,600 -1,887 Descending Albuquerque Center
Sat 12:38:07 PM 33.2761 -112.9922 88° East 328 377 14,600 -1,839 Descending Albuquerque Center
Sat 12:39:09 PM 33.2783 -112.8881 89° East 317 365 12,800 -1,756 Descending Albuquerque Center
Sat 12:40:10 PM 33.2978 -112.7769 78° East 295 339 11,000 -1,366 Descending Albuquerque Center
Sat 12:41:12 PM 33.3286 -112.6939 66° East 281 323 10,000 -774 Descending Albuquerque Center
Sat 12:42:14 PM 33.3581 -112.6144 66° East 271 312 9,400 -823 Descending Albuquerque Center
Sat 12:43:16 PM 33.3869 -112.5372 66° East 257 296 8,300 -878 Descending Albuquerque Center
Sat 12:44:17 PM 33.4131 -112.4678 66° East 231 266 7,600 -878 Descending Albuquerque Center
Sat 12:45:19 PM 33.4286 -112.3950 76° East 228 262 6,500 -919 Descending Albuquerque Center
Sat 12:46:21 PM 33.4281 -112.3192 90° East 230 265 5,700 -1,016 Descending Albuquerque Center
Sat 12:47:23 PM 33.4289 -112.2294 89° East 225 259 4,400 -1,171 Descending Albuquerque Center
Sat 12:48:24 PM 33.4289 -112.1572 90° East 219 252 3,300 -976 Descending Albuquerque Center
Sat 12:49:26 PM 33.4283 -112.0986 91° East 180 207 2,400 -823 Descending Albuquerque Center
Sat 12:50:28 PM 33.4289 -112.0556 89° East 137 158 1,600 -629 Descending Albuquerque Center
Sat 12:51:30 PM 33.4289 -112.0086 90° East 129 148 1,100 -484 Descending Albuquerque Center
Sat 12:53:00 PM 33.4343 -112.0116 104° East  Level Estimated

Login

Don't have an account? Register now (free) for customized features, flight alerts, and more!